createdAt,value
2023-03-06T00:00:03.330Z,75.15
2023-03-06T00:01:03.389Z,75.26
2023-03-06T00:02:03.411Z,75.67
2023-03-06T00:03:03.415Z,75.36
2023-03-06T00:04:03.450Z,75.91
2023-03-06T00:05:03.493Z,76.01
2023-03-06T00:06:03.544Z,75.78
2023-03-06T00:07:03.492Z,75.12
2023-03-06T00:08:03.499Z,74.63
2023-03-06T00:09:03.493Z,75.26
2023-03-06T00:10:03.552Z,75.70
2023-03-06T00:11:03.603Z,76.64
2023-03-06T00:12:03.618Z,76.64
2023-03-06T00:13:03.614Z,76.74
2023-03-06T00:14:03.643Z,76.39
2023-03-06T00:15:05.534Z,75.78
2023-03-06T00:16:03.696Z,75.98
2023-03-06T00:17:03.709Z,76.29
2023-03-06T00:18:03.712Z,75.88
2023-03-06T00:19:03.726Z,75.74
2023-03-06T00:20:03.727Z,74.91
2023-03-06T00:21:03.727Z,74.67
2023-03-06T00:22:03.738Z,74.40
2023-03-06T00:23:03.734Z,74.26
2023-03-06T00:24:03.765Z,74.19
2023-03-06T00:25:03.771Z,74.60
2023-03-06T00:26:03.786Z,74.60
2023-03-06T00:27:03.784Z,74.60
2023-03-06T00:28:03.767Z,74.81
2023-03-06T00:29:03.847Z,74.36
2023-03-06T00:30:03.838Z,74.46
2023-03-06T00:31:03.843Z,74.29
2023-03-06T00:32:03.848Z,74.46
2023-03-06T00:33:03.835Z,74.05
2023-03-06T00:34:03.817Z,74.26
2023-03-06T00:35:03.837Z,74.50
2023-03-06T00:36:03.836Z,75.36
2023-03-06T00:37:03.837Z,75.50
2023-03-06T00:38:03.862Z,75.78
2023-03-06T00:39:03.845Z,75.57
2023-03-06T00:40:03.848Z,75.60
2023-03-06T00:41:03.892Z,76.32
2023-03-06T00:42:03.888Z,76.32
2023-03-06T00:43:03.890Z,75.78
2023-03-06T00:44:03.889Z,75.36
2023-03-06T00:45:03.887Z,75.36
2023-03-06T00:46:03.935Z,75.78
2023-03-06T00:47:03.927Z,75.88
2023-03-06T00:48:03.927Z,75.32
2023-03-06T00:49:03.925Z,74.67
2023-03-06T00:50:03.927Z,74.26
2023-03-06T00:51:03.952Z,73.95
2023-03-06T00:52:03.957Z,73.74
2023-03-06T00:53:03.962Z,73.74
2023-03-06T00:54:03.951Z,73.74
2023-03-06T00:55:03.949Z,73.64
2023-03-06T00:56:03.934Z,73.43
2023-03-06T00:57:03.952Z,73.43
2023-03-06T00:58:03.938Z,73.74
2023-03-06T00:59:03.941Z,73.85
2023-03-06T01:00:03.929Z,74.15
2023-03-06T01:01:03.984Z,73.95
2023-03-06T01:02:03.960Z,73.95
2023-03-06T01:03:03.978Z,73.64
2023-03-06T01:04:03.973Z,73.43
2023-03-06T01:05:03.969Z,73.33
2023-03-06T01:06:03.968Z,73.22
2023-03-06T01:07:03.973Z,73.22
2023-03-06T01:08:03.977Z,73.33
2023-03-06T01:09:03.968Z,73.43
2023-03-06T01:10:03.978Z,74.08
2023-03-06T01:11:03.976Z,74.05
2023-03-06T01:12:03.988Z,74.05
2023-03-06T01:13:03.987Z,73.88
2023-03-06T01:14:03.988Z,74.19
2023-03-06T01:15:04.011Z,74.15
2023-03-06T01:16:04.050Z,74.02
2023-03-06T01:17:04.037Z,75.22
2023-03-06T01:18:04.038Z,74.71
2023-03-06T01:19:04.058Z,74.60
2023-03-06T01:20:04.052Z,74.29
2023-03-06T01:21:04.048Z,74.33
2023-03-06T01:22:04.048Z,74.84
2023-03-06T01:23:04.058Z,74.81
2023-03-06T01:24:04.083Z,74.40
2023-03-06T01:25:04.078Z,74.95
2023-03-06T01:26:04.078Z,74.84
2023-03-06T01:27:04.100Z,74.63
2023-03-06T01:28:04.088Z,74.98
2023-03-06T01:29:04.158Z,75.70
2023-03-06T01:30:04.180Z,75.70
2023-03-06T01:31:04.180Z,75.88
2023-03-06T01:32:04.330Z,75.36
2023-03-06T01:33:04.212Z,75.05
2023-03-06T01:34:04.219Z,74.74
2023-03-06T01:35:04.248Z,75.57
2023-03-06T01:36:04.254Z,75.19
2023-03-06T01:37:04.254Z,76.26
2023-03-06T01:38:04.263Z,76.67
2023-03-06T01:39:04.273Z,76.43
2023-03-06T01:40:04.284Z,76.22
2023-03-06T01:41:04.300Z,75.91
2023-03-06T01:42:04.295Z,76.12
2023-03-06T01:43:04.304Z,76.43
2023-03-06T01:44:04.331Z,75.81
2023-03-06T01:45:04.336Z,76.46
2023-03-06T01:46:04.403Z,76.64
2023-03-06T01:47:04.398Z,76.84
2023-03-06T01:48:04.397Z,77.09
2023-03-06T01:49:04.467Z,77.22
2023-03-06T01:50:04.446Z,77.81
2023-03-06T01:51:04.457Z,77.47
2023-03-06T01:52:04.462Z,76.78
2023-03-06T01:53:04.460Z,77.29
2023-03-06T01:54:04.554Z,77.91
2023-03-06T01:55:04.481Z,77.60
2023-03-06T01:56:04.490Z,77.60
2023-03-06T01:57:04.490Z,77.36
2023-03-06T01:58:04.503Z,76.64
2023-03-06T01:59:04.527Z,76.88
2023-03-06T02:00:04.539Z,77.15
2023-03-06T02:01:04.594Z,76.64
2023-03-06T02:02:04.683Z,76.53
2023-03-06T02:03:04.612Z,76.64
2023-03-06T02:04:04.611Z,76.50
2023-03-06T02:05:04.618Z,75.98
2023-03-06T02:06:04.618Z,75.78
2023-03-06T02:07:04.633Z,76.18
2023-03-06T02:08:04.647Z,75.88
2023-03-06T02:09:04.640Z,75.78
2023-03-06T02:10:04.640Z,76.09
2023-03-06T02:11:04.643Z,76.09
2023-03-06T02:12:04.644Z,75.98
2023-03-06T02:13:04.661Z,76.29
2023-03-06T02:14:04.668Z,75.88
2023-03-06T02:15:04.689Z,75.88
2023-03-06T02:16:04.687Z,76.12
2023-03-06T02:17:04.693Z,77.15
2023-03-06T02:18:04.710Z,77.50
2023-03-06T02:19:04.716Z,77.91
2023-03-06T02:20:04.741Z,77.47
2023-03-06T02:21:04.747Z,77.47
2023-03-06T02:22:04.761Z,77.26
2023-03-06T02:23:04.786Z,78.16
2023-03-06T02:24:04.819Z,78.74
2023-03-06T02:25:04.836Z,78.08
2023-03-06T02:26:04.890Z,77.87
2023-03-06T02:27:04.892Z,77.43
2023-03-06T02:28:04.922Z,77.01
2023-03-06T02:29:04.928Z,76.60
2023-03-06T02:30:04.943Z,76.95
2023-03-06T02:31:04.964Z,77.22
2023-03-06T02:32:04.992Z,77.01
2023-03-06T02:33:04.977Z,77.22
2023-03-06T02:34:04.971Z,77.22
2023-03-06T02:35:04.977Z,76.81
2023-03-06T02:36:04.992Z,76.91
2023-03-06T02:37:04.980Z,77.12
2023-03-06T02:38:05.000Z,77.33
2023-03-06T02:39:05.006Z,77.56
2023-03-06T02:40:05.011Z,77.64
2023-03-06T02:41:05.030Z,77.33
2023-03-06T02:42:05.050Z,77.67
2023-03-06T02:43:05.052Z,77.87
2023-03-06T02:44:05.074Z,77.98
2023-03-06T02:45:05.103Z,78.53
2023-03-06T02:46:05.185Z,78.85
2023-03-06T02:47:05.150Z,79.26
2023-03-06T02:48:05.159Z,79.36
2023-03-06T02:49:05.168Z,78.91
2023-03-06T02:50:05.189Z,78.50
2023-03-06T02:51:05.187Z,78.39
2023-03-06T02:52:05.207Z,78.95
2023-03-06T02:53:05.208Z,79.85
2023-03-06T02:54:05.206Z,80.85
2023-03-06T02:55:05.247Z,80.47
2023-03-06T02:56:05.247Z,81.30
2023-03-06T02:57:05.239Z,81.16
2023-03-06T02:58:05.246Z,80.43
2023-03-06T02:59:05.237Z,80.57
2023-03-06T03:00:05.240Z,80.74
2023-03-06T03:01:05.272Z,80.74
2023-03-06T03:02:05.259Z,80.22
2023-03-06T03:03:05.248Z,79.91
2023-03-06T03:04:05.247Z,80.64
2023-03-06T03:05:05.274Z,79.77
2023-03-06T03:06:05.297Z,79.50
2023-03-06T03:07:05.357Z,80.22
2023-03-06T03:08:05.353Z,79.88
2023-03-06T03:09:05.357Z,79.67
2023-03-06T03:10:05.357Z,79.57
2023-03-06T03:11:05.348Z,79.81
2023-03-06T03:12:05.339Z,80.22
2023-03-06T03:13:05.349Z,79.91
2023-03-06T03:14:05.352Z,80.12
2023-03-06T03:15:05.350Z,80.22
2023-03-06T03:16:05.458Z,80.33
2023-03-06T03:17:05.350Z,79.67
2023-03-06T03:18:05.366Z,79.40
2023-03-06T03:19:05.369Z,79.47
2023-03-06T03:20:05.364Z,79.91
2023-03-06T03:21:05.359Z,80.02
2023-03-06T03:22:05.356Z,79.67
2023-03-06T03:23:05.363Z,79.36
2023-03-06T03:24:05.382Z,79.36
2023-03-06T03:25:05.382Z,79.05
2023-03-06T03:26:05.384Z,79.36
2023-03-06T03:27:05.397Z,79.88
2023-03-06T03:28:05.394Z,79.57
2023-03-06T03:29:05.446Z,79.26
2023-03-06T03:30:05.466Z,79.26
2023-03-06T03:31:05.524Z,79.05
2023-03-06T03:32:05.546Z,79.36
2023-03-06T03:33:05.577Z,79.36
2023-03-06T03:34:05.597Z,79.57
2023-03-06T03:35:05.608Z,79.26
2023-03-06T03:36:05.612Z,79.47
2023-03-06T03:37:05.612Z,79.67
2023-03-06T03:38:05.608Z,79.67
2023-03-06T03:39:05.626Z,79.36
2023-03-06T03:40:05.639Z,79.26
2023-03-06T03:41:05.628Z,80.12
2023-03-06T03:42:05.638Z,79.88
2023-03-06T03:43:05.650Z,79.57
2023-03-06T03:44:05.662Z,79.26
2023-03-06T03:45:05.664Z,79.40
2023-03-06T03:46:05.698Z,79.81
2023-03-06T03:47:05.718Z,79.71
2023-03-06T03:48:05.711Z,80.22
2023-03-06T03:49:05.758Z,79.88
2023-03-06T03:50:05.766Z,79.47
2023-03-06T03:51:05.750Z,79.47
2023-03-06T03:52:05.757Z,79.36
2023-03-06T03:53:05.752Z,79.33
2023-03-06T03:54:05.759Z,81.09
2023-03-06T03:55:05.751Z,80.99
2023-03-06T03:56:05.762Z,80.43
2023-03-06T03:57:05.749Z,80.02
2023-03-06T03:58:05.751Z,79.50
2023-03-06T03:59:05.761Z,79.30
2023-03-06T04:00:05.759Z,79.50
2023-03-06T04:01:05.763Z,79.36
2023-03-06T04:02:05.849Z,79.16
2023-03-06T04:03:05.770Z,78.88
2023-03-06T04:04:05.793Z,78.78
2023-03-06T04:05:05.852Z,78.78
2023-03-06T04:06:05.850Z,79.09
2023-03-06T04:07:05.869Z,79.30
2023-03-06T04:08:05.897Z,79.40
2023-03-06T04:09:05.926Z,79.40
2023-03-06T04:10:05.945Z,79.30
2023-03-06T04:11:05.983Z,79.30
2023-03-06T04:12:06.025Z,79.60
2023-03-06T04:13:08.211Z,79.30
2023-03-06T04:14:06.110Z,79.74
2023-03-06T04:15:06.139Z,79.85
2023-03-06T04:16:06.257Z,80.02
2023-03-06T04:17:06.212Z,80.05
2023-03-06T04:18:06.240Z,80.47
2023-03-06T04:19:06.269Z,80.05
2023-03-06T04:20:06.307Z,80.16
2023-03-06T04:21:06.359Z,80.57
2023-03-06T04:22:06.372Z,80.26
2023-03-06T04:23:06.415Z,80.26
2023-03-06T04:24:06.432Z,80.05
2023-03-06T04:25:06.467Z,79.91
2023-03-06T04:26:06.502Z,79.60
2023-03-06T04:27:06.533Z,79.44
2023-03-06T04:28:06.573Z,79.13
2023-03-06T04:29:06.607Z,79.54
2023-03-06T04:30:06.653Z,79.74
2023-03-06T04:31:06.701Z,80.16
2023-03-06T04:32:06.793Z,80.47
2023-03-06T04:33:06.755Z,80.26
2023-03-06T04:34:06.786Z,80.05
2023-03-06T04:35:06.819Z,79.95
2023-03-06T04:36:06.848Z,79.37
2023-03-06T04:37:06.877Z,79.16
2023-03-06T04:38:06.910Z,79.06
2023-03-06T04:39:07.015Z,79.71
2023-03-06T04:40:07.018Z,80.23
2023-03-06T04:41:06.988Z,81.82
2023-03-06T04:42:06.989Z,81.79
2023-03-06T04:43:07.017Z,82.24
2023-03-06T04:44:07.099Z,82.24
2023-03-06T04:45:07.151Z,82.20
2023-03-06T04:46:07.234Z,81.79
2023-03-06T04:47:07.246Z,81.37
2023-03-06T04:48:07.244Z,81.37
2023-03-06T04:49:07.250Z,81.58
2023-03-06T04:50:07.300Z,82.41
2023-03-06T04:51:07.345Z,82.82
2023-03-06T04:52:07.363Z,82.51
2023-03-06T05:14:37.355Z,82.62
2023-03-06T05:15:37.384Z,83.59
2023-03-06T05:16:37.427Z,84.52
2023-03-06T05:17:37.467Z,84.52
2023-03-06T05:18:37.483Z,84.63
2023-03-06T05:19:37.529Z,84.98
2023-03-06T05:20:37.562Z,86.02
2023-03-06T05:21:37.592Z,85.81
2023-03-06T05:22:37.626Z,85.46
2023-03-06T05:23:37.644Z,84.80
2023-03-06T05:24:37.663Z,83.93
2023-03-06T05:25:37.684Z,83.41
2023-03-06T05:26:37.730Z,83.00
2023-03-06T05:27:37.748Z,83.41
2023-03-06T05:28:37.764Z,83.31
2023-03-06T05:29:37.784Z,83.51
2023-03-06T05:30:37.813Z,84.63
2023-03-06T05:31:37.876Z,84.88
2023-03-06T05:32:38.081Z,85.66
2023-03-06T05:33:37.955Z,85.60
2023-03-06T05:34:37.985Z,85.77
2023-03-06T05:35:38.081Z,85.25
2023-03-06T05:36:38.023Z,84.96
2023-03-06T05:37:38.036Z,83.93
2023-03-06T05:38:38.055Z,83.93
2023-03-06T05:39:38.078Z,83.62
2023-03-06T05:40:38.130Z,82.89
2023-03-06T05:41:38.109Z,83.55
2023-03-06T05:42:38.179Z,84.59
2023-03-06T05:43:38.261Z,84.59
2023-03-06T05:44:38.220Z,84.23
2023-03-06T05:45:38.323Z,83.93
2023-03-06T05:46:38.303Z,83.41
2023-03-06T05:47:38.353Z,82.89
2023-03-06T05:48:38.434Z,83.55
2023-03-06T05:49:38.427Z,84.63
2023-03-06T05:50:38.477Z,85.04
2023-03-06T05:51:38.571Z,85.04
2023-03-06T05:52:38.542Z,84.90
2023-03-06T05:53:38.605Z,84.69
2023-03-06T05:54:38.662Z,84.17
2023-03-06T05:55:38.713Z,84.28
2023-03-06T05:56:39.608Z,84.38
2023-03-06T05:57:38.797Z,84.11
2023-03-06T05:58:38.861Z,84.73
2023-03-06T05:59:38.930Z,85.00
2023-03-06T06:00:38.902Z,84.59
2023-03-06T06:01:38.964Z,84.28
2023-03-06T06:02:39.030Z,84.73
2023-03-06T06:03:39.162Z,85.00
2023-03-06T06:04:39.085Z,84.38
2023-03-06T06:05:39.153Z,84.38
2023-03-06T06:06:39.212Z,83.93
2023-03-06T06:07:39.338Z,82.95
2023-03-06T06:08:39.225Z,82.65
2023-03-06T06:09:39.267Z,82.79
2023-03-06T06:10:39.305Z,83.10
2023-03-06T06:11:39.336Z,83.62
2023-03-06T06:12:39.361Z,83.20
2023-03-06T06:13:39.385Z,83.10
2023-03-06T06:14:39.426Z,83.41
2023-03-06T06:15:39.548Z,82.89
2023-03-06T06:16:39.496Z,83.31
2023-03-06T06:17:39.538Z,83.20
2023-03-06T06:18:41.304Z,83.41
2023-03-06T06:19:39.677Z,83.00
2023-03-06T06:20:39.684Z,82.79
2023-03-06T06:21:39.673Z,83.00
2023-03-06T06:22:39.715Z,83.55
2023-03-06T06:23:39.735Z,83.00
2023-03-06T06:24:39.798Z,83.76
2023-03-06T06:25:39.857Z,83.93
2023-03-06T06:26:39.923Z,83.26
2023-03-06T06:27:39.963Z,82.54
2023-03-06T06:28:40.044Z,81.92
2023-03-06T06:29:40.039Z,82.54
2023-03-06T06:30:40.056Z,82.34
2023-03-06T06:31:40.077Z,81.82
2023-03-06T06:32:40.202Z,82.03
2023-03-06T06:33:40.075Z,82.58
2023-03-06T06:34:40.056Z,83.03
2023-03-06T06:35:40.162Z,83.00
2023-03-06T06:36:40.168Z,82.68
2023-03-06T06:37:40.186Z,82.58
2023-03-06T06:38:40.209Z,82.58
2023-03-06T06:39:40.217Z,82.31
2023-03-06T06:40:40.222Z,83.00
2023-03-06T06:41:56.898Z,83.00
2023-03-06T06:42:40.537Z,82.58
2023-03-06T06:43:40.207Z,82.48
2023-03-06T06:44:40.226Z,82.68
2023-03-06T06:45:40.229Z,82.72
2023-03-06T06:47:20.865Z,83.03
2023-03-06T06:47:40.389Z,83.03
2023-03-06T06:48:40.250Z,83.03
2023-03-06T06:49:40.276Z,82.89
2023-03-06T06:50:40.330Z,83.14
2023-03-06T06:51:40.393Z,83.45
2023-03-06T06:52:40.448Z,83.41
2023-03-06T06:53:40.373Z,82.37
2023-03-06T06:54:40.391Z,82.58
2023-03-06T06:55:40.447Z,82.17
2023-03-06T06:56:40.451Z,82.37
2023-03-06T06:57:40.491Z,82.48
2023-03-06T06:58:40.521Z,82.27
2023-03-06T06:59:40.573Z,82.27
2023-03-06T07:00:40.603Z,82.27
2023-03-06T07:01:40.763Z,82.06
2023-03-06T07:02:40.634Z,82.13
2023-03-06T07:03:40.781Z,82.27
2023-03-06T07:04:49.322Z,82.79
2023-03-06T07:05:40.801Z,82.27
2023-03-06T07:06:40.826Z,82.03
2023-03-06T07:07:40.913Z,81.71
2023-03-06T07:08:40.917Z,81.37
2023-03-06T07:09:40.902Z,80.54
2023-03-06T07:10:40.971Z,80.43
2023-03-06T07:11:40.991Z,80.99
2023-03-06T07:12:40.972Z,81.09
2023-03-06T07:13:41.016Z,81.30
2023-03-06T07:14:40.998Z,81.51
2023-03-06T07:15:41.139Z,81.34
2023-03-06T07:16:41.065Z,81.40
2023-03-06T07:17:41.089Z,81.40
2023-03-06T07:18:41.078Z,81.09
2023-03-06T07:19:41.065Z,80.64
2023-03-06T07:20:41.065Z,80.33
2023-03-06T07:21:41.127Z,79.98
2023-03-06T07:22:51.015Z,79.91
2023-03-06T07:23:41.137Z,80.22
2023-03-06T07:24:41.177Z,80.61
2023-03-06T07:25:41.168Z,81.58
2023-03-06T07:26:41.252Z,82.51
2023-03-06T07:27:41.274Z,81.96
2023-03-06T07:28:51.975Z,82.06
2023-03-06T07:29:41.308Z,81.05
2023-03-06T07:30:41.410Z,80.47
2023-03-06T07:31:41.371Z,81.20
2023-03-06T07:32:41.443Z,81.09
2023-03-06T07:33:41.431Z,80.74
2023-03-06T07:34:41.460Z,80.47
2023-03-06T07:35:41.527Z,80.68
2023-03-06T07:36:41.513Z,80.99
2023-03-06T07:37:41.506Z,80.43
2023-03-06T07:38:41.509Z,80.19
2023-03-06T07:39:41.571Z,79.88
2023-03-06T07:40:41.609Z,79.47
2023-03-06T07:41:41.622Z,79.50
2023-03-06T07:42:41.676Z,80.26
2023-03-06T07:43:41.654Z,80.64
2023-03-06T07:44:41.722Z,80.12
2023-03-06T07:45:41.744Z,80.54
2023-03-06T07:46:41.851Z,79.98
2023-03-06T07:47:41.815Z,79.05
2023-03-06T07:48:41.805Z,79.71
2023-03-06T07:49:41.874Z,80.12
2023-03-06T07:50:41.908Z,80.12
2023-03-06T07:51:41.926Z,80.02
2023-03-06T07:52:41.906Z,80.29
2023-03-06T07:53:41.917Z,80.22
2023-03-06T07:54:41.927Z,80.88
2023-03-06T07:55:41.956Z,81.20
2023-03-06T07:56:41.961Z,81.85
2023-03-06T07:57:41.998Z,82.06
2023-03-06T07:58:42.072Z,81.30
2023-03-06T07:59:42.063Z,81.61
2023-03-06T08:00:42.078Z,81.51
2023-03-06T08:01:42.080Z,81.26
2023-03-06T08:02:42.097Z,81.05
2023-03-06T08:03:42.156Z,80.54
2023-03-06T08:04:42.173Z,81.47
2023-03-06T08:05:42.222Z,81.64
2023-03-06T08:06:42.276Z,80.50
2023-03-06T08:07:42.332Z,80.19
2023-03-06T08:08:42.338Z,80.40
2023-03-06T08:09:42.332Z,80.29
2023-03-06T08:10:42.352Z,81.23
2023-03-06T08:11:42.400Z,80.81
2023-03-06T08:12:42.420Z,80.57
2023-03-06T08:13:42.414Z,80.29
2023-03-06T08:14:42.403Z,81.29
2023-03-06T08:15:42.420Z,80.77
2023-03-06T08:16:42.523Z,80.57
2023-03-06T08:17:42.541Z,81.02
2023-03-06T08:18:45.036Z,81.54
2023-03-06T08:19:42.614Z,81.39
2023-03-06T08:20:42.590Z,81.16
2023-03-06T08:21:42.598Z,81.78
2023-03-06T08:22:42.642Z,82.09
2023-03-06T08:23:42.709Z,82.44
2023-03-06T08:24:42.739Z,83.06
2023-03-06T08:25:42.766Z,83.78
2023-03-06T08:26:42.787Z,83.75
2023-03-06T08:27:42.820Z,83.06
2023-03-06T08:28:42.891Z,83.37
2023-03-06T08:29:42.928Z,83.89
2023-03-06T08:30:42.963Z,83.93
2023-03-06T08:31:43.070Z,84.59
2023-03-06T08:32:43.070Z,85.38
2023-03-06T08:33:43.050Z,84.96
2023-03-06T08:34:43.073Z,84.58
2023-03-06T08:35:43.150Z,83.23
2023-03-06T08:36:43.130Z,83.89
2023-03-06T08:37:43.219Z,83.44
2023-03-06T08:38:43.223Z,83.71
2023-03-06T08:39:43.192Z,82.98
2023-03-06T08:40:43.171Z,82.67
2023-03-06T08:41:43.256Z,82.36
2023-03-06T08:42:43.308Z,82.32
2023-03-06T08:43:43.372Z,82.22
2023-03-06T08:44:43.351Z,82.05
2023-03-06T08:45:43.460Z,82.78
2023-03-06T08:46:43.430Z,83.09
2023-03-06T08:47:43.464Z,83.23
2023-03-06T08:48:43.521Z,83.33
2023-03-06T08:49:43.584Z,83.89
2023-03-06T08:50:43.612Z,84.51
2023-03-06T08:51:43.591Z,84.86
2023-03-06T08:52:43.625Z,85.48
2023-03-06T08:53:44.389Z,85.27
2023-03-06T08:54:44.545Z,84.75
2023-03-06T08:55:43.716Z,85.34
2023-03-06T08:56:43.704Z,85.03
2023-03-06T08:57:43.710Z,85.13
2023-03-06T08:58:43.754Z,84.37
2023-03-06T08:59:43.828Z,84.27
2023-03-06T09:00:43.983Z,84.37
2023-03-06T09:01:43.857Z,84.51
2023-03-06T09:02:43.968Z,84.58
2023-03-06T09:03:43.931Z,84.58
2023-03-06T09:04:43.925Z,84.06
2023-03-06T09:05:43.995Z,83.95
2023-03-06T09:06:44.045Z,84.30
2023-03-06T09:07:44.085Z,84.72
2023-03-06T09:08:44.123Z,84.55
2023-03-06T09:09:44.135Z,85.06
2023-03-06T09:10:44.200Z,85.94
2023-03-06T09:11:44.244Z,85.83
2023-03-06T09:12:50.622Z,86.35
2023-03-06T09:13:44.285Z,86.04
2023-03-06T09:14:44.332Z,85.69
2023-03-06T09:15:44.384Z,85.48
2023-03-06T09:16:44.487Z,85.65
2023-03-06T09:17:44.558Z,84.65
2023-03-06T09:18:44.486Z,85.38
2023-03-06T09:19:44.542Z,85.17
2023-03-06T09:20:44.548Z,85.55
2023-03-06T09:21:44.581Z,84.58
2023-03-06T09:22:44.647Z,83.75
2023-03-06T09:23:44.699Z,83.95
2023-03-06T09:24:44.721Z,84.09
2023-03-06T09:25:44.742Z,84.27
2023-03-06T09:26:47.022Z,84.06
2023-03-06T09:27:44.813Z,83.64
2023-03-06T09:28:44.874Z,84.06
2023-03-06T09:29:44.933Z,82.92
2023-03-06T09:30:44.970Z,83.47
2023-03-06T09:31:44.953Z,84.37
2023-03-06T09:32:45.021Z,84.20
2023-03-06T09:33:44.943Z,84.88
2023-03-06T09:34:45.000Z,84.16
2023-03-06T09:35:44.980Z,84.30
2023-03-06T09:36:56.590Z,84.99
2023-03-06T09:37:44.997Z,84.88
2023-03-06T09:38:45.035Z,85.09
2023-03-06T09:39:45.106Z,84.68
2023-03-06T09:40:45.136Z,84.95
2023-03-06T09:41:45.197Z,84.37
2023-03-06T09:42:45.216Z,84.58
2023-03-06T09:43:45.278Z,84.43
2023-03-06T09:44:45.283Z,84.68
2023-03-06T09:45:45.315Z,85.03
2023-03-06T09:46:45.302Z,85.65
2023-03-06T09:47:45.334Z,85.50
2023-03-06T09:48:45.355Z,85.36
2023-03-06T09:49:45.394Z,84.39
2023-03-06T09:50:45.425Z,84.22
2023-03-06T09:51:45.417Z,84.53
2023-03-06T09:52:45.444Z,84.84
2023-03-06T09:53:45.438Z,84.95
2023-03-06T09:54:45.475Z,84.39
2023-03-06T09:55:45.494Z,84.22
2023-03-06T09:56:45.494Z,84.82
2023-03-06T09:57:45.578Z,85.75
2023-03-06T09:58:45.595Z,85.82
2023-03-06T09:59:45.658Z,85.19
2023-03-06T10:00:45.732Z,85.71
2023-03-06T10:01:45.777Z,85.88
2023-03-06T10:02:45.997Z,85.11
2023-03-06T10:03:45.825Z,84.50
2023-03-06T10:04:45.912Z,84.01
2023-03-06T10:05:45.875Z,84.88
2023-03-06T10:06:45.946Z,85.13
2023-03-06T10:07:45.988Z,86.17
2023-03-06T10:08:46.053Z,86.62
2023-03-06T10:09:46.143Z,86.47
2023-03-06T10:10:46.107Z,86.27
2023-03-06T10:11:46.166Z,86.54
2023-03-06T10:12:46.166Z,85.99
2023-03-06T10:13:46.172Z,85.86
2023-03-06T10:14:48.896Z,86.52
2023-03-06T10:15:46.294Z,87.24
2023-03-06T10:16:46.299Z,87.24
2023-03-06T10:17:46.292Z,87.10
2023-03-06T10:18:46.373Z,86.89
2023-03-06T10:19:46.441Z,86.83
2023-03-06T10:20:46.457Z,87.10
2023-03-06T10:21:46.502Z,86.68
2023-03-06T10:22:58.531Z,86.41
2023-03-06T10:23:46.625Z,86.93
2023-03-06T10:24:46.644Z,86.79
2023-03-06T10:25:46.652Z,86.31
2023-03-06T10:26:46.879Z,86.89
2023-03-06T10:27:46.744Z,86.65
2023-03-06T10:28:46.737Z,86.23
2023-03-06T10:30:00.103Z,85.88
2023-03-06T10:30:46.848Z,85.16
2023-03-06T10:31:46.876Z,85.05
2023-03-06T10:32:49.134Z,85.09
2023-03-06T10:33:46.965Z,85.61
2023-03-06T10:34:46.971Z,85.78
2023-03-06T10:35:47.058Z,85.11
2023-03-06T10:36:47.024Z,84.74
2023-03-06T10:37:47.059Z,85.05
2023-03-06T10:38:47.044Z,85.09
2023-03-06T10:39:47.035Z,85.24
2023-03-06T10:40:47.086Z,85.96
2023-03-06T10:41:47.197Z,85.40
2023-03-06T10:42:47.177Z,85.47
2023-03-06T10:43:47.229Z,84.22
2023-03-06T10:44:47.339Z,84.01
2023-03-06T10:45:49.468Z,83.19
2023-03-06T10:46:47.437Z,83.61
2023-03-06T10:47:47.317Z,84.72
2023-03-06T10:48:47.338Z,85.19
2023-03-06T10:49:47.380Z,85.16
2023-03-06T10:50:47.379Z,84.12
2023-03-06T10:51:47.389Z,83.87
2023-03-06T10:52:47.408Z,82.67
2023-03-06T10:53:47.508Z,83.71
2023-03-06T10:54:47.548Z,83.77
2023-03-06T10:55:47.557Z,82.64
2023-03-06T10:56:47.588Z,82.95
2023-03-06T10:57:47.639Z,82.64
2023-03-06T10:58:47.651Z,82.39
2023-03-06T10:59:47.690Z,81.84
2023-03-06T11:00:47.702Z,81.21
2023-03-06T11:01:47.791Z,80.84
2023-03-06T11:02:47.787Z,81.77
2023-03-06T11:03:47.850Z,81.77
2023-03-06T11:04:47.924Z,82.29
2023-03-06T11:05:47.930Z,82.60
2023-03-06T11:06:47.924Z,81.77
2023-03-06T11:07:47.900Z,81.91
2023-03-06T11:08:47.995Z,82.78
2023-03-06T11:09:48.052Z,82.98
2023-03-06T11:10:48.047Z,83.29
2023-03-06T11:11:48.043Z,83.09
2023-03-06T11:12:48.039Z,83.12
2023-03-06T11:13:48.081Z,83.95
2023-03-06T11:14:48.103Z,83.95
2023-03-06T11:15:48.168Z,83.56
2023-03-06T11:16:48.163Z,82.60
2023-03-06T11:17:48.140Z,82.39
2023-03-06T11:18:48.163Z,81.67
2023-03-06T11:19:48.192Z,81.77
2023-03-06T11:20:52.443Z,81.35
2023-03-06T11:21:48.234Z,80.74
2023-03-06T11:22:49.295Z,81.35
2023-03-06T11:23:48.312Z,80.49
2023-03-06T11:24:48.373Z,80.60
2023-03-06T11:25:48.399Z,79.83
2023-03-06T11:26:48.433Z,79.22
2023-03-06T11:27:48.473Z,79.76
2023-03-06T11:28:48.618Z,79.07
2023-03-06T11:29:48.578Z,78.93
2023-03-06T11:30:48.601Z,76.87
2023-03-06T11:31:48.602Z,76.56
2023-03-06T11:32:48.650Z,75.63
2023-03-06T11:33:48.712Z,76.08
2023-03-06T11:34:50.503Z,75.94
2023-03-06T11:35:48.827Z,75.49
2023-03-06T11:36:48.822Z,75.25
2023-03-06T11:37:48.889Z,75.97
2023-03-06T11:38:48.930Z,74.50
2023-03-06T11:39:48.973Z,75.39
2023-03-06T11:40:49.009Z,76.50
2023-03-06T11:41:49.062Z,77.46
2023-03-06T11:42:49.101Z,78.08
2023-03-06T11:43:49.127Z,78.80
2023-03-06T11:44:49.155Z,78.28
2023-03-06T11:45:49.224Z,78.77
2023-03-06T11:46:49.288Z,79.08
2023-03-06T11:47:49.272Z,79.70
2023-03-06T11:48:49.331Z,79.29
2023-03-06T11:49:49.364Z,79.53
2023-03-06T11:50:49.405Z,79.80
2023-03-06T11:51:49.464Z,80.01
2023-03-06T11:52:49.527Z,79.52
2023-03-06T11:53:49.575Z,78.49
2023-03-06T11:54:49.597Z,78.80
2023-03-06T11:55:49.627Z,78.49
2023-03-06T11:56:49.666Z,78.22
2023-03-06T11:57:49.728Z,77.39
2023-03-06T11:58:49.779Z,77.60
2023-03-06T11:59:49.801Z,77.25
2023-03-06T12:00:49.842Z,77.91
2023-03-06T12:01:49.912Z,78.28
2023-03-06T12:02:49.868Z,77.25
2023-03-06T12:03:49.901Z,77.77
2023-03-06T12:04:49.953Z,77.32
2023-03-06T12:05:49.991Z,76.87
2023-03-06T12:06:50.061Z,76.73
2023-03-06T12:07:50.102Z,75.84
2023-03-06T12:08:50.163Z,75.46
2023-03-06T12:09:50.202Z,76.50
2023-03-06T12:10:51.875Z,76.77
2023-03-06T12:11:50.310Z,76.32
2023-03-06T12:12:50.654Z,76.42
2023-03-06T12:14:50.413Z,76.18
2023-03-06T12:15:50.364Z,76.70
2023-03-06T12:16:50.520Z,76.32
2023-03-06T12:17:50.404Z,74.50
2023-03-06T12:18:50.454Z,75.32
2023-03-06T12:19:50.483Z,75.15
2023-03-06T12:20:50.541Z,74.71
2023-03-06T12:21:50.627Z,72.99
2023-03-06T12:22:57.997Z,73.40
2023-03-06T12:23:50.643Z,72.85
2023-03-06T12:24:50.645Z,73.30
2023-03-06T12:25:50.725Z,73.81
2023-03-06T12:26:50.740Z,72.09
2023-03-06T12:27:50.737Z,71.78
2023-03-06T12:28:50.757Z,71.55
2023-03-06T12:29:50.814Z,70.07
2023-03-06T12:30:50.834Z,70.94
2023-03-06T12:31:50.880Z,69.56
2023-03-06T12:32:50.948Z,68.57
2023-03-06T12:33:50.977Z,68.13
2023-03-06T12:34:51.035Z,68.96
2023-03-06T12:35:51.087Z,64.53
2023-03-06T12:36:51.091Z,64.25
2023-03-06T12:37:51.113Z,65.04
2023-03-06T12:38:51.118Z,63.20
2023-03-06T12:39:51.203Z,63.05
2023-03-06T12:40:51.269Z,62.10
2023-03-06T12:41:51.319Z,61.27
2023-03-06T12:42:51.318Z,60.35
2023-03-06T12:43:51.365Z,62.07
2023-03-06T12:44:51.403Z,61.74
2023-03-06T12:45:51.437Z,63.09
2023-03-06T12:46:51.439Z,61.34
2023-03-06T12:47:51.458Z,60.57
2023-03-06T12:48:51.481Z,58.95
2023-03-06T12:49:51.501Z,56.56
2023-03-06T12:50:51.532Z,57.43
2023-03-06T12:51:51.575Z,60.11
2023-03-06T12:52:51.602Z,58.34
2023-03-06T12:53:51.620Z,56.45
2023-03-06T12:54:51.635Z,56.43
2023-03-06T12:55:51.682Z,57.29
2023-03-06T12:56:51.675Z,57.15
2023-03-06T12:57:51.677Z,57.79
2023-03-06T12:58:51.734Z,57.25
2023-03-06T12:59:51.792Z,57.61
2023-03-06T13:00:55.320Z,57.64
2023-03-06T13:01:52.034Z,57.18
2023-03-06T13:02:51.959Z,58.84
2023-03-06T13:03:51.951Z,59.64
2023-03-06T13:04:51.939Z,61.80
2023-03-06T13:05:52.164Z,61.18
2023-03-06T13:06:52.087Z,61.32
2023-03-06T13:07:52.102Z,61.93
2023-03-06T13:08:52.087Z,62.96
2023-03-06T13:09:52.103Z,62.75
2023-03-06T13:10:52.124Z,62.51
2023-03-06T13:11:52.166Z,62.81
2023-03-06T13:12:52.200Z,63.35
2023-03-06T13:13:52.213Z,62.23
2023-03-06T13:14:54.616Z,62.87